createdAt,value
2018-07-05T00:01:36.058Z,9.17
2018-07-05T00:04:15.643Z,8.63
2018-07-05T00:06:55.380Z,8.70
2018-07-05T00:09:34.943Z,8.50
2018-07-05T00:12:14.504Z,7.80
2018-07-05T00:14:53.966Z,8.23
2018-07-05T00:17:33.762Z,7.73
2018-07-05T00:20:13.415Z,7.03
2018-07-05T00:22:53.002Z,7.37
2018-07-05T00:25:32.698Z,8.00
2018-07-05T00:28:12.520Z,9.10
2018-07-05T00:30:52.034Z,9.10
2018-07-05T00:33:31.556Z,9.30
2018-07-05T00:36:11.012Z,10.03
2018-07-05T00:38:50.574Z,9.53
2018-07-05T00:41:30.087Z,9.20
2018-07-05T00:44:09.922Z,9.30
2018-07-05T00:46:49.562Z,8.63
2018-07-05T00:49:29.282Z,9.07
2018-07-05T00:52:08.894Z,8.53
2018-07-05T00:54:48.494Z,8.50
2018-07-05T00:57:28.034Z,9.90
2018-07-05T01:00:07.578Z,10.00
2018-07-05T01:02:47.154Z,10.73
2018-07-05T01:05:26.748Z,9.27
2018-07-05T01:08:06.260Z,9.47
2018-07-05T01:10:45.938Z,10.20
2018-07-05T01:13:25.591Z,9.60
2018-07-05T01:16:05.129Z,8.37
2018-07-05T01:18:44.826Z,7.73
2018-07-05T01:21:24.305Z,7.43
2018-07-05T01:24:03.733Z,7.30
2018-07-05T01:26:43.286Z,7.07
2018-07-05T01:29:22.936Z,7.30
2018-07-05T01:32:02.644Z,7.07
2018-07-05T01:34:42.296Z,7.57
2018-07-05T01:37:22.003Z,8.43
2018-07-05T01:40:01.448Z,7.43
2018-07-05T01:42:40.995Z,6.70
2018-07-05T01:45:20.653Z,7.73
2018-07-05T01:48:01.131Z,8.10
2018-07-05T01:50:40.670Z,8.20
2018-07-05T01:53:20.136Z,7.87
2018-07-05T01:55:59.737Z,8.33
2018-07-05T01:58:39.353Z,8.97
2018-07-05T02:01:18.841Z,8.30
2018-07-05T02:03:58.365Z,10.27
2018-07-05T02:06:37.957Z,10.17
2018-07-05T02:09:17.629Z,9.87
2018-07-05T02:11:57.883Z,9.57
2018-07-05T02:14:37.418Z,8.70
2018-07-05T02:17:17.013Z,8.93
2018-07-05T02:19:56.626Z,9.63
2018-07-05T02:22:36.150Z,10.43
2018-07-05T02:25:15.886Z,11.00
2018-07-05T02:27:55.462Z,12.70
2018-07-05T02:30:35.015Z,12.10
2018-07-05T02:33:14.558Z,13.60
2018-07-05T02:35:54.062Z,12.73
2018-07-05T02:38:33.635Z,11.70
2018-07-05T02:41:13.335Z,11.73
2018-07-05T02:43:53.150Z,10.20
2018-07-05T02:46:32.665Z,9.57
2018-07-05T02:49:12.249Z,9.20
2018-07-05T02:51:52.117Z,9.77
2018-07-05T02:54:32.698Z,8.97
2018-07-05T02:57:12.277Z,9.60
2018-07-05T02:59:51.717Z,7.53
2018-07-05T03:02:31.456Z,9.03
2018-07-05T03:05:11.058Z,8.53
2018-07-05T03:07:50.688Z,9.13
2018-07-05T03:10:31.364Z,9.17
2018-07-05T03:13:10.952Z,9.37
2018-07-05T03:15:50.550Z,9.97
2018-07-05T03:18:30.070Z,9.10
2018-07-05T03:21:09.587Z,8.37
2018-07-05T03:23:49.108Z,9.70
2018-07-05T03:26:28.674Z,9.90
2018-07-05T03:29:08.794Z,9.20
2018-07-05T03:31:48.354Z,9.10
2018-07-05T03:34:28.676Z,9.20
2018-07-05T03:37:08.262Z,8.80
2018-07-05T03:39:47.991Z,8.57
2018-07-05T03:42:27.490Z,8.33
2018-07-05T03:45:06.972Z,9.20
2018-07-05T03:47:46.589Z,10.03
2018-07-05T03:50:26.021Z,9.53
2018-07-05T03:53:05.638Z,13.07
2018-07-05T03:55:45.330Z,13.13
2018-07-05T03:58:25.029Z,11.53
2018-07-05T04:01:04.574Z,10.60
2018-07-05T04:03:44.325Z,10.20
2018-07-05T04:06:23.842Z,10.47
2018-07-05T04:09:03.726Z,10.20
2018-07-05T04:11:43.189Z,10.27
2018-07-05T04:14:22.763Z,11.27
2018-07-05T04:17:02.377Z,12.07
2018-07-05T04:19:46.663Z,10.90
2018-07-05T04:22:26.199Z,10.90
2018-07-05T04:25:05.895Z,11.63
2018-07-05T04:27:45.862Z,10.73
2018-07-05T04:30:25.427Z,10.87
2018-07-05T04:33:04.929Z,10.20
2018-07-05T04:35:44.561Z,10.13
2018-07-05T04:38:24.273Z,10.03
2018-07-05T04:41:03.887Z,10.93
2018-07-05T04:43:43.661Z,11.50
2018-07-05T04:46:23.251Z,12.27
2018-07-05T04:49:02.817Z,11.27
2018-07-05T04:51:42.479Z,10.60
2018-07-05T04:54:22.129Z,11.77
2018-07-05T04:57:01.713Z,12.73
2018-07-05T04:59:41.445Z,14.43
2018-07-05T05:02:21.130Z,15.73
2018-07-05T05:05:00.670Z,16.30
2018-07-05T05:07:40.292Z,15.77
2018-07-05T05:10:19.850Z,14.13
2018-07-05T05:12:59.470Z,14.20
2018-07-05T05:15:39.052Z,13.63
2018-07-05T05:18:18.721Z,15.37
2018-07-05T05:20:58.321Z,15.30
2018-07-05T05:23:38.019Z,13.93
2018-07-05T05:26:17.592Z,13.30
2018-07-05T05:28:57.304Z,13.70
2018-07-05T05:31:37.012Z,17.13
2018-07-05T05:34:16.476Z,19.27
2018-07-05T05:36:55.994Z,18.50
2018-07-05T05:39:35.534Z,18.57
2018-07-05T05:42:15.074Z,22.50
2018-07-05T05:44:54.643Z,24.57
2018-07-05T05:47:34.180Z,23.47
2018-07-05T05:50:13.712Z,23.70
2018-07-05T05:52:53.243Z,25.20
2018-07-05T05:55:32.880Z,22.77
2018-07-05T05:58:12.314Z,22.70
2018-07-05T06:00:51.882Z,20.57
2018-07-05T06:03:31.583Z,20.60
2018-07-05T06:06:11.194Z,18.97
2018-07-05T06:08:50.776Z,19.47
2018-07-05T06:11:30.808Z,19.00
2018-07-05T06:14:11.110Z,17.97
2018-07-05T06:16:51.382Z,18.97
2018-07-05T06:19:31.503Z,18.67
2018-07-05T06:22:11.077Z,18.60
2018-07-05T06:24:50.641Z,18.20
2018-07-05T06:27:30.865Z,18.10
2018-07-05T06:30:10.548Z,17.23
2018-07-05T06:32:50.745Z,17.40
2018-07-05T06:35:30.809Z,17.27
2018-07-05T06:38:10.366Z,16.90
2018-07-05T06:40:49.995Z,15.27
2018-07-05T06:43:29.672Z,15.10
2018-07-05T06:46:09.336Z,14.93
2018-07-05T06:48:49.049Z,15.03
2018-07-05T06:51:28.570Z,15.10
2018-07-05T06:54:08.826Z,14.60
2018-07-05T06:56:48.314Z,14.07
2018-07-05T06:59:27.824Z,14.27
2018-07-05T07:02:07.372Z,13.17
2018-07-05T07:04:46.838Z,12.60
2018-07-05T07:07:26.526Z,13.07
2018-07-05T07:10:06.012Z,12.20
2018-07-05T07:12:45.482Z,10.53
2018-07-05T07:15:25.009Z,11.37
2018-07-05T07:18:04.706Z,10.67
2018-07-05T07:20:44.312Z,9.60
2018-07-05T07:23:23.875Z,9.93
2018-07-05T07:26:03.416Z,9.70
2018-07-05T07:28:43.074Z,8.60
2018-07-05T07:31:22.716Z,8.97
2018-07-05T07:34:02.268Z,8.40
2018-07-05T07:36:41.892Z,7.50
2018-07-05T07:39:21.484Z,8.07
2018-07-05T07:41:50.109Z,7.50
2018-07-05T07:44:19.407Z,8.00
2018-07-05T07:46:47.577Z,8.07
2018-07-05T07:49:15.867Z,8.50
2018-07-05T07:51:43.175Z,7.90
2018-07-05T07:54:10.475Z,8.90
2018-07-05T07:56:37.941Z,7.83
2018-07-05T07:59:06.125Z,7.47
2018-07-05T08:01:33.431Z,7.80
2018-07-05T08:04:00.750Z,7.50
2018-07-05T08:06:28.069Z,7.43
2018-07-05T08:08:55.373Z,8.50
2018-07-05T08:11:22.679Z,9.17
2018-07-05T08:13:49.983Z,8.37
2018-07-05T08:16:17.278Z,7.53
2018-07-05T08:18:44.605Z,7.40
2018-07-05T08:21:11.905Z,7.80
2018-07-05T08:23:39.207Z,8.50
2018-07-05T08:26:06.523Z,7.77
2018-07-05T08:28:33.821Z,7.53
2018-07-05T08:31:01.125Z,8.57
2018-07-05T08:33:28.435Z,9.27
2018-07-05T08:35:55.738Z,8.57
2018-07-05T08:38:23.044Z,8.83
2018-07-05T08:40:50.350Z,8.73
2018-07-05T08:43:17.651Z,7.97
2018-07-05T08:45:44.960Z,7.80
2018-07-05T08:48:12.301Z,8.30
2018-07-05T08:50:39.633Z,8.83
2018-07-05T08:53:06.948Z,8.50
2018-07-05T08:55:34.249Z,8.13
2018-07-05T08:58:01.545Z,8.13
2018-07-05T09:00:28.855Z,8.17
2018-07-05T09:02:56.170Z,7.07
2018-07-05T09:05:23.486Z,6.60
2018-07-05T09:07:50.795Z,7.23
2018-07-05T09:10:18.099Z,7.93
2018-07-05T09:12:45.415Z,7.10
2018-07-05T09:15:12.715Z,6.77
2018-07-05T09:17:40.129Z,6.20
2018-07-05T09:20:07.395Z,6.13
2018-07-05T09:22:34.697Z,6.60
2018-07-05T09:25:02.022Z,6.17
2018-07-05T09:27:29.343Z,4.80
2018-07-05T09:29:56.647Z,5.10
2018-07-05T09:32:23.951Z,4.83
2018-07-05T09:34:51.269Z,4.87
2018-07-05T09:37:18.605Z,5.03
2018-07-05T09:39:45.925Z,4.63
2018-07-05T09:42:13.232Z,4.10
2018-07-05T09:44:40.539Z,4.80
2018-07-05T09:47:07.835Z,4.00
2018-07-05T09:49:35.131Z,3.93
2018-07-05T09:52:02.441Z,3.30
2018-07-05T09:54:29.745Z,3.60
2018-07-05T09:56:57.062Z,3.40
2018-07-05T09:59:24.373Z,3.17
2018-07-05T10:01:51.688Z,2.97
2018-07-05T10:04:18.985Z,2.80
2018-07-05T10:06:46.629Z,2.87
2018-07-05T10:09:13.926Z,2.60
2018-07-05T10:11:41.240Z,2.53
2018-07-05T10:14:08.546Z,2.97
2018-07-05T10:16:35.858Z,2.60
2018-07-05T10:19:03.174Z,3.30
2018-07-05T10:21:30.507Z,3.00
2018-07-05T10:23:58.198Z,2.80
2018-07-05T10:26:25.502Z,2.80
2018-07-05T10:29:04.980Z,3.07
2018-07-05T10:31:44.514Z,2.60
2018-07-05T10:34:11.818Z,2.70
2018-07-05T10:36:39.169Z,2.77
2018-07-05T10:39:06.478Z,2.80
2018-07-05T10:41:46.134Z,2.90
2018-07-05T10:44:26.187Z,2.40
2018-07-05T10:47:05.862Z,2.50
2018-07-05T10:49:45.574Z,2.47
2018-07-05T10:52:25.209Z,2.53
2018-07-05T10:55:04.789Z,2.30
2018-07-05T10:57:44.361Z,2.30
2018-07-05T11:00:24.074Z,2.93
2018-07-05T11:03:03.766Z,2.60
2018-07-05T11:05:43.492Z,3.17
2018-07-05T11:08:23.213Z,2.90
2018-07-05T11:11:02.725Z,2.80
2018-07-05T11:13:42.270Z,2.60
2018-07-05T11:16:21.859Z,2.70
2018-07-05T11:19:02.191Z,2.70
2018-07-05T11:21:41.754Z,3.10
2018-07-05T11:24:21.473Z,3.20
2018-07-05T11:27:01.221Z,3.10
2018-07-05T11:29:40.910Z,3.13
2018-07-05T11:32:20.622Z,2.83
2018-07-05T11:35:00.326Z,3.73
2018-07-05T11:37:39.830Z,4.23
2018-07-05T11:40:19.564Z,3.23
2018-07-05T11:42:59.123Z,3.10
2018-07-05T11:45:38.679Z,2.97
2018-07-05T11:48:18.428Z,3.83
2018-07-05T11:50:57.961Z,3.50
2018-07-05T11:53:38.032Z,3.73
2018-07-05T11:56:17.779Z,3.77
2018-07-05T11:58:57.318Z,3.30
2018-07-05T12:01:37.034Z,3.47
2018-07-05T12:04:16.824Z,2.70
2018-07-05T12:06:56.296Z,3.47
2018-07-05T12:09:35.838Z,3.17
2018-07-05T12:12:15.524Z,3.20
2018-07-05T12:14:55.134Z,3.17
2018-07-05T12:17:35.152Z,3.37
2018-07-05T12:20:14.742Z,3.00
2018-07-05T12:22:54.398Z,3.00
2018-07-05T12:25:33.967Z,2.50
2018-07-05T12:28:13.666Z,2.87
2018-07-05T12:30:53.401Z,2.60
2018-07-05T12:33:32.961Z,2.37
2018-07-05T12:36:12.539Z,2.37
2018-07-05T12:38:52.110Z,2.80
2018-07-05T12:41:31.787Z,2.60
2018-07-05T12:44:11.401Z,2.63
2018-07-05T12:46:50.986Z,2.70
2018-07-05T12:49:30.531Z,2.53
2018-07-05T12:52:10.245Z,2.87
2018-07-05T12:54:49.952Z,2.70
2018-07-05T12:57:29.663Z,2.90
2018-07-05T13:00:09.229Z,2.77
2018-07-05T13:02:48.821Z,3.30
2018-07-05T13:05:28.349Z,3.00
2018-07-05T13:08:07.949Z,2.70
2018-07-05T13:10:47.453Z,2.33
2018-07-05T13:13:27.082Z,2.50
2018-07-05T13:16:06.720Z,2.83
2018-07-05T13:18:47.147Z,2.97
2018-07-05T13:21:26.834Z,2.60
2018-07-05T13:24:06.292Z,3.00
2018-07-05T13:26:46.038Z,2.63
2018-07-05T13:29:25.710Z,2.67
2018-07-05T13:32:05.305Z,2.63
2018-07-05T13:34:44.910Z,3.00
2018-07-05T13:37:24.658Z,2.10
2018-07-05T13:40:04.309Z,2.37
2018-07-05T13:42:43.874Z,2.90
2018-07-05T13:45:23.477Z,2.67
2018-07-05T13:48:03.088Z,2.70
2018-07-05T13:50:42.761Z,2.50
2018-07-05T13:53:22.437Z,2.23
2018-07-05T13:56:01.949Z,2.10
2018-07-05T13:58:41.613Z,2.10
2018-07-05T14:01:21.161Z,2.20
2018-07-05T14:04:00.677Z,1.80
2018-07-05T14:06:41.655Z,2.00
2018-07-05T14:09:21.185Z,2.10
2018-07-05T14:12:00.589Z,2.13
2018-07-05T14:14:40.091Z,2.10
2018-07-05T14:17:19.659Z,2.30
2018-07-05T14:19:59.352Z,2.83
2018-07-05T14:22:38.869Z,2.47
2018-07-05T14:25:18.415Z,2.00
2018-07-05T14:27:57.975Z,2.23
2018-07-05T14:30:37.643Z,1.97
2018-07-05T14:33:17.352Z,1.93
2018-07-05T14:35:57.045Z,2.20
2018-07-05T14:38:36.580Z,2.40
2018-07-05T14:41:16.206Z,2.30
2018-07-05T14:43:55.928Z,1.83
2018-07-05T14:46:35.363Z,2.20
2018-07-05T14:49:14.922Z,2.27
2018-07-05T14:51:54.667Z,2.43
2018-07-05T14:54:34.302Z,2.50
2018-07-05T14:57:13.946Z,2.50
2018-07-05T14:59:53.518Z,2.90
2018-07-05T15:02:33.066Z,2.93
2018-07-05T15:05:12.624Z,2.53
2018-07-05T15:07:52.164Z,2.20
2018-07-05T15:10:31.662Z,2.80
2018-07-05T15:13:11.390Z,2.20
2018-07-05T15:15:50.990Z,1.90
2018-07-05T15:18:30.672Z,2.17
2018-07-05T15:21:10.208Z,2.50
2018-07-05T15:23:49.910Z,2.50
2018-07-05T15:26:30.372Z,2.67
2018-07-05T15:29:09.939Z,2.63
2018-07-05T15:31:49.626Z,2.23
2018-07-05T15:34:29.314Z,2.80
2018-07-05T15:37:08.934Z,2.63
2018-07-05T15:39:48.622Z,2.30
2018-07-05T15:42:28.369Z,2.40
2018-07-05T15:45:08.531Z,2.10
2018-07-05T15:47:48.115Z,2.57
2018-07-05T15:50:27.679Z,2.10
2018-07-05T15:53:07.329Z,3.07
2018-07-05T15:55:46.849Z,3.00
2018-07-05T15:58:26.476Z,2.50
2018-07-05T16:01:06.113Z,2.23
2018-07-05T16:03:45.657Z,2.27
2018-07-05T16:06:25.345Z,2.03
2018-07-05T16:09:06.394Z,2.63
2018-07-05T16:11:45.925Z,2.70
2018-07-05T16:14:25.581Z,2.50
2018-07-05T16:17:05.559Z,2.80
2018-07-05T16:19:45.115Z,2.60
2018-07-05T16:22:24.759Z,3.43
2018-07-05T16:25:04.304Z,2.50
2018-07-05T16:27:43.884Z,2.93
2018-07-05T16:30:23.456Z,3.43
2018-07-05T16:33:03.020Z,2.97
2018-07-05T16:35:42.581Z,2.37
2018-07-05T16:38:22.144Z,3.20
2018-07-05T16:41:01.685Z,3.43
2018-07-05T16:43:41.214Z,3.20
2018-07-05T16:46:20.658Z,2.67
2018-07-05T16:49:00.354Z,2.67
2018-07-05T16:51:39.942Z,2.40
2018-07-05T16:54:19.682Z,2.60
2018-07-05T16:56:59.356Z,2.47
2018-07-05T16:59:39.048Z,2.20
2018-07-05T17:02:18.729Z,1.70
2018-07-05T17:04:58.174Z,1.93
2018-07-05T17:07:37.780Z,1.83
2018-07-05T17:10:17.360Z,2.00
2018-07-05T17:12:57.436Z,1.80
2018-07-05T17:15:37.004Z,1.77
2018-07-05T17:18:16.589Z,2.10
2018-07-05T17:20:56.265Z,2.07
2018-07-05T17:23:35.950Z,1.90
2018-07-05T17:26:15.601Z,2.03
2018-07-05T17:28:55.324Z,1.70
2018-07-05T17:31:34.878Z,2.20
2018-07-05T17:34:14.534Z,2.10
2018-07-05T17:36:54.094Z,1.70
2018-07-05T17:39:33.801Z,1.70
2018-07-05T17:42:13.303Z,2.10
2018-07-05T17:44:53.000Z,1.40
2018-07-05T17:47:32.607Z,1.93
2018-07-05T17:50:12.135Z,1.63
2018-07-05T17:52:51.800Z,1.90
2018-07-05T17:55:31.975Z,1.63
2018-07-05T17:58:11.452Z,2.20
2018-07-05T18:00:51.118Z,2.00
2018-07-05T18:03:30.710Z,2.17
2018-07-05T18:06:10.960Z,2.17
2018-07-05T18:08:50.534Z,1.70
2018-07-05T18:11:29.953Z,2.03
2018-07-05T18:14:09.534Z,1.80
2018-07-05T18:16:49.239Z,1.70
2018-07-05T18:19:28.711Z,2.17
2018-07-05T18:22:08.373Z,1.50
2018-07-05T18:24:48.021Z,2.80
2018-07-05T18:27:27.498Z,2.97
2018-07-05T18:30:07.230Z,2.70
2018-07-05T18:32:46.811Z,2.53
2018-07-05T18:35:26.347Z,2.43
2018-07-05T18:38:05.897Z,2.10
2018-07-05T18:40:45.516Z,2.60
2018-07-05T18:43:25.070Z,2.10
2018-07-05T18:46:04.929Z,2.33
2018-07-05T18:48:45.412Z,2.93
2018-07-05T18:51:25.047Z,2.60
2018-07-05T18:54:04.731Z,2.20
2018-07-05T18:56:44.329Z,2.17
2018-07-05T18:59:23.844Z,2.40
2018-07-05T19:02:03.475Z,2.10
2018-07-05T19:04:43.063Z,1.80
2018-07-05T19:07:22.571Z,2.20
2018-07-05T19:10:02.348Z,1.90
2018-07-05T19:12:41.944Z,2.10
2018-07-05T19:15:21.488Z,2.33
2018-07-05T19:18:01.116Z,2.87
2018-07-05T19:20:40.724Z,2.90
2018-07-05T19:23:20.278Z,3.03
2018-07-05T19:25:59.890Z,3.97
2018-07-05T19:28:39.414Z,4.00
2018-07-05T19:31:18.994Z,4.07
2018-07-05T19:33:58.544Z,3.70
2018-07-05T19:36:38.140Z,3.73
2018-07-05T19:39:17.823Z,4.10
2018-07-05T19:41:57.539Z,3.63
2018-07-05T19:44:37.218Z,3.90
2018-07-05T19:47:16.849Z,4.23
2018-07-05T19:49:56.537Z,4.30
2018-07-05T19:52:36.143Z,4.80
2018-07-05T19:55:15.666Z,4.80
2018-07-05T19:57:55.324Z,5.23
2018-07-05T20:00:35.042Z,4.50
2018-07-05T20:03:14.584Z,5.03
2018-07-05T20:05:54.109Z,5.47
2018-07-05T20:08:33.862Z,5.10
2018-07-05T20:11:13.401Z,5.20
2018-07-05T20:13:53.093Z,5.77
2018-07-05T20:16:32.666Z,5.43
2018-07-05T20:19:12.238Z,5.10
2018-07-05T20:21:51.908Z,5.50
2018-07-05T20:24:31.513Z,5.80
2018-07-05T20:27:11.166Z,5.57
2018-07-05T20:29:50.706Z,6.07
2018-07-05T20:32:30.274Z,6.37
2018-07-05T20:35:10.092Z,6.30
2018-07-05T20:37:49.668Z,5.73
2018-07-05T20:40:29.247Z,6.33
2018-07-05T20:43:08.867Z,6.27
2018-07-05T20:45:48.560Z,5.63
2018-07-05T20:48:28.260Z,7.40
2018-07-05T20:51:07.784Z,6.60
2018-07-05T20:53:47.430Z,7.37
2018-07-05T20:56:26.938Z,7.00
2018-07-05T20:59:06.480Z,6.10
2018-07-05T21:01:47.128Z,5.53
2018-07-05T21:04:26.807Z,5.50
2018-07-05T21:07:06.454Z,6.23
2018-07-05T21:09:46.097Z,5.83
2018-07-05T21:12:25.596Z,5.77
2018-07-05T21:15:05.282Z,6.13
2018-07-05T21:17:44.972Z,5.77
2018-07-05T21:20:24.584Z,5.60
2018-07-05T21:23:04.557Z,4.77
2018-07-05T21:25:44.157Z,4.93
2018-07-05T21:28:23.888Z,5.00
2018-07-05T21:31:03.548Z,5.03
2018-07-05T21:33:43.206Z,5.27
2018-07-05T21:36:22.891Z,5.63
2018-07-05T21:39:02.379Z,5.73
2018-07-05T21:41:41.853Z,5.77
2018-07-05T21:44:21.382Z,5.83
2018-07-05T21:47:00.895Z,6.97
2018-07-05T21:49:41.487Z,5.90
2018-07-05T21:52:21.089Z,6.20
2018-07-05T21:55:00.617Z,6.60
2018-07-05T21:57:40.200Z,5.83
2018-07-05T22:00:19.751Z,6.60
2018-07-05T22:02:59.345Z,6.10
2018-07-05T22:05:38.935Z,6.47
2018-07-05T22:08:18.490Z,6.40
2018-07-05T22:10:58.183Z,6.70
2018-07-05T22:13:37.817Z,7.13
2018-07-05T22:16:17.663Z,7.87
2018-07-05T22:19:02.706Z,8.80
2018-07-05T22:23:49.932Z,8.23
2018-07-05T22:26:36.665Z,7.07
2018-07-05T22:29:21.715Z,6.77
2018-07-05T22:32:01.297Z,7.37
2018-07-05T22:34:40.883Z,7.10
2018-07-05T22:37:20.626Z,7.43
2018-07-05T22:40:00.292Z,6.90
2018-07-05T22:42:39.955Z,8.80
2018-07-05T22:45:19.656Z,8.57
2018-07-05T22:47:59.216Z,9.40
2018-07-05T22:50:38.874Z,9.10
2018-07-05T22:53:18.482Z,8.30
2018-07-05T22:55:57.974Z,8.37
2018-07-05T22:58:37.462Z,8.30
2018-07-05T23:01:17.025Z,7.87
2018-07-05T23:03:57.414Z,7.50
2018-07-05T23:06:36.936Z,7.70
2018-07-05T23:09:16.562Z,7.47
2018-07-05T23:11:56.259Z,9.33
2018-07-05T23:14:35.681Z,11.10
2018-07-05T23:17:15.320Z,11.50
2018-07-05T23:19:55.023Z,12.07
2018-07-05T23:22:34.557Z,11.60
2018-07-05T23:25:14.277Z,11.73
2018-07-05T23:27:53.941Z,10.90
2018-07-05T23:30:33.577Z,10.30
2018-07-05T23:33:13.313Z,10.53
2018-07-05T23:35:52.797Z,10.63
2018-07-05T23:38:32.317Z,11.37
2018-07-05T23:41:11.847Z,9.90
2018-07-05T23:43:51.433Z,12.30
2018-07-05T23:46:31.085Z,11.70
2018-07-05T23:49:10.723Z,11.93
2018-07-05T23:51:50.308Z,10.43
2018-07-05T23:54:30.009Z,9.70
2018-07-05T23:57:09.570Z,10.33
2018-07-05T23:59:49.192Z,9.73
